createdAt,value
2023-05-26T00:00:52.728Z,60.10
2023-05-26T00:03:23.490Z,60.07
2023-05-26T00:05:55.291Z,60.08
2023-05-26T00:08:25.850Z,59.99
2023-05-26T00:10:56.358Z,59.91
2023-05-26T00:13:26.907Z,60.04
2023-05-26T00:15:57.454Z,60.05
2023-05-26T00:18:28.457Z,60.22
2023-05-26T00:20:59.345Z,60.28
2023-05-26T00:23:29.932Z,60.35
2023-05-26T00:26:00.509Z,60.37
2023-05-26T00:28:31.019Z,60.28
2023-05-26T00:31:01.644Z,60.31
2023-05-26T00:33:32.176Z,60.30
2023-05-26T00:36:03.180Z,60.45
2023-05-26T00:38:33.702Z,60.36
2023-05-26T00:41:04.773Z,60.35
2023-05-26T00:43:35.267Z,60.19
2023-05-26T00:46:05.857Z,60.20
2023-05-26T00:48:36.372Z,60.21
2023-05-26T00:51:07.460Z,60.10
2023-05-26T00:53:43.259Z,60.07
2023-05-26T00:56:16.940Z,60.29
2023-05-26T00:58:48.225Z,60.50
2023-05-26T01:01:22.870Z,60.62
2023-05-26T01:03:54.026Z,60.62
2023-05-26T01:06:25.668Z,60.73
2023-05-26T01:08:56.561Z,60.79
2023-05-26T01:11:33.889Z,60.82
2023-05-26T01:14:09.937Z,60.79
2023-05-26T01:16:45.117Z,60.86
2023-05-26T01:19:53.587Z,60.70
2023-05-26T01:22:38.849Z,60.72
2023-05-26T01:25:25.898Z,60.75
2023-05-26T01:28:11.319Z,60.90
2023-05-26T01:30:43.522Z,60.87
2023-05-26T01:33:14.235Z,61.02
2023-05-26T01:35:46.421Z,61.07
2023-05-26T01:38:16.375Z,61.09
2023-05-26T01:40:58.648Z,61.16
2023-05-26T01:43:36.220Z,61.24
2023-05-26T01:46:12.820Z,61.33
2023-05-26T01:48:47.039Z,61.08
2023-05-26T01:51:21.968Z,61.11
2023-05-26T01:53:57.600Z,61.05
2023-05-26T01:56:29.041Z,60.96
2023-05-26T01:59:01.764Z,61.08
2023-05-26T02:01:35.108Z,61.00
2023-05-26T02:04:06.151Z,60.95
2023-05-26T02:06:36.767Z,60.89
2023-05-26T02:09:08.657Z,60.84
2023-05-26T02:11:39.166Z,60.92
2023-05-26T02:14:09.641Z,60.86
2023-05-26T02:16:40.912Z,60.82
2023-05-26T02:19:11.545Z,60.77
2023-05-26T02:21:42.304Z,60.77
2023-05-26T02:24:12.813Z,60.78
2023-05-26T02:26:43.336Z,60.74
2023-05-26T02:29:13.837Z,60.63
2023-05-26T02:31:44.356Z,60.66
2023-05-26T02:34:14.893Z,60.77
2023-05-26T02:36:45.454Z,60.65
2023-05-26T02:39:17.226Z,60.83
2023-05-26T02:41:48.106Z,60.73
2023-05-26T02:44:18.893Z,60.72
2023-05-26T02:46:49.428Z,60.75
2023-05-26T02:49:19.998Z,60.79
2023-05-26T02:51:50.497Z,60.79
2023-05-26T02:54:20.988Z,60.75
2023-05-26T02:56:51.572Z,60.79
2023-05-26T02:59:22.165Z,60.82
2023-05-26T03:01:52.910Z,60.90
2023-05-26T03:04:23.575Z,61.00
2023-05-26T03:06:54.137Z,61.04
2023-05-26T03:09:27.177Z,61.05
2023-05-26T03:11:57.783Z,61.19
2023-05-26T03:14:29.050Z,61.02
2023-05-26T03:16:59.557Z,61.09
2023-05-26T03:19:30.217Z,60.97
2023-05-26T03:22:38.270Z,60.98
2023-05-26T03:24:54.017Z,61.03
2023-05-26T03:27:27.549Z,61.10
2023-05-26T03:29:58.316Z,61.05
2023-05-26T03:32:29.713Z,61.06
2023-05-26T03:35:00.300Z,61.03
2023-05-26T03:37:30.791Z,61.00
2023-05-26T03:40:01.648Z,61.06
2023-05-26T03:42:32.476Z,60.98
2023-05-26T03:45:03.040Z,61.10
2023-05-26T03:47:33.618Z,61.17
2023-05-26T03:50:07.191Z,61.37
2023-05-26T03:52:39.636Z,61.35
2023-05-26T03:55:12.116Z,61.37
2023-05-26T03:57:42.781Z,61.56
2023-05-26T04:00:15.797Z,61.63
2023-05-26T04:02:49.612Z,61.63
2023-05-26T04:05:20.489Z,61.67
2023-05-26T04:07:51.900Z,61.60
2023-05-26T04:10:22.423Z,61.57
2023-05-26T04:12:52.929Z,61.78
2023-05-26T04:15:23.576Z,61.64
2023-05-26T04:17:54.232Z,61.66
2023-05-26T04:20:24.859Z,61.59
2023-05-26T04:22:55.072Z,61.76
2023-05-26T04:25:26.518Z,61.99
2023-05-26T04:28:04.123Z,62.14
2023-05-26T04:30:54.904Z,62.24
2023-05-26T04:33:26.312Z,62.42
2023-05-26T04:36:19.674Z,62.10
2023-05-26T04:38:50.141Z,62.05
2023-05-26T04:41:20.818Z,62.08
2023-05-26T04:43:51.349Z,62.07
2023-05-26T04:46:21.960Z,61.98
2023-05-26T04:48:53.837Z,62.04
2023-05-26T04:51:25.142Z,61.88
2023-05-26T04:53:56.560Z,61.87
2023-05-26T04:56:27.994Z,61.71
2023-05-26T04:59:01.861Z,61.45
2023-05-26T05:01:34.085Z,61.42
2023-05-26T05:04:37.671Z,61.39
2023-05-26T05:07:08.614Z,61.20
2023-05-26T05:09:39.203Z,61.12
2023-05-26T05:12:09.943Z,61.11
2023-05-26T05:14:42.420Z,60.90
2023-05-26T05:17:13.605Z,60.98
2023-05-26T05:19:44.160Z,60.84
2023-05-26T05:22:14.966Z,60.76
2023-05-26T05:24:45.662Z,60.85
2023-05-26T05:27:16.348Z,60.83
2023-05-26T05:29:47.204Z,60.76
2023-05-26T05:32:17.924Z,60.70
2023-05-26T05:34:51.936Z,60.62
2023-05-26T05:37:22.494Z,60.57
2023-05-26T05:39:53.788Z,60.54
2023-05-26T05:42:26.000Z,60.47
2023-05-26T05:44:56.699Z,60.60
2023-05-26T05:47:53.037Z,60.50
2023-05-26T05:50:23.999Z,60.31
2023-05-26T05:52:55.570Z,60.51
2023-05-26T05:55:26.516Z,60.70
2023-05-26T05:57:57.124Z,60.72
2023-05-26T06:00:27.846Z,60.68
2023-05-26T06:02:59.366Z,60.44
2023-05-26T06:05:30.256Z,60.30
2023-05-26T06:08:00.783Z,60.38
2023-05-26T06:10:32.927Z,60.15
2023-05-26T06:13:03.565Z,60.16
2023-05-26T06:15:34.167Z,60.20
2023-05-26T06:18:05.061Z,60.14
2023-05-26T06:20:35.894Z,60.20
2023-05-26T06:23:07.648Z,60.28
2023-05-26T06:25:38.235Z,60.04
2023-05-26T06:28:09.363Z,60.04
2023-05-26T06:30:40.669Z,59.98
2023-05-26T06:33:37.494Z,60.06
2023-05-26T06:36:09.285Z,59.92
2023-05-26T06:38:40.462Z,59.70
2023-05-26T06:41:11.912Z,59.63
2023-05-26T06:43:42.654Z,59.83
2023-05-26T06:46:13.184Z,59.54
2023-05-26T06:48:44.363Z,59.55
2023-05-26T06:51:21.509Z,59.50
2023-05-26T06:53:52.311Z,59.29
2023-05-26T06:56:23.017Z,59.00
2023-05-26T06:58:54.406Z,57.72
2023-05-26T07:01:25.378Z,57.10
2023-05-26T07:03:56.608Z,56.91
2023-05-26T07:06:35.599Z,56.72
2023-05-26T07:09:09.900Z,56.41
2023-05-26T07:11:50.902Z,55.61
2023-05-26T07:14:41.050Z,55.21
2023-05-26T07:17:13.541Z,54.53
2023-05-26T07:19:44.498Z,54.18
2023-05-26T07:22:15.188Z,54.24
2023-05-26T07:24:58.566Z,53.74
2023-05-26T07:27:35.171Z,53.59
2023-05-26T07:30:06.736Z,53.67
2023-05-26T07:32:39.042Z,53.86
2023-05-26T07:35:10.581Z,53.95
2023-05-26T07:37:41.473Z,53.41
2023-05-26T07:40:13.594Z,52.61
2023-05-26T07:42:45.749Z,52.74
2023-05-26T07:45:17.546Z,52.63
2023-05-26T07:47:47.108Z,52.49
2023-05-26T07:50:18.109Z,52.51
2023-05-26T07:52:48.694Z,52.65
2023-05-26T07:55:19.326Z,52.75
2023-05-26T07:57:50.027Z,52.98
2023-05-26T08:00:21.204Z,53.11
2023-05-26T08:02:52.053Z,53.25
2023-05-26T08:05:22.857Z,53.00
2023-05-26T08:07:53.439Z,52.97
2023-05-26T08:10:24.195Z,53.10
2023-05-26T08:12:55.310Z,52.81
2023-05-26T08:15:26.514Z,52.65
2023-05-26T08:17:57.241Z,52.26
2023-05-26T08:20:27.936Z,51.72
2023-05-26T08:23:00.548Z,51.71
2023-05-26T08:25:31.242Z,51.69
2023-05-26T08:28:01.761Z,51.77
2023-05-26T08:30:32.281Z,52.06
2023-05-26T08:33:02.930Z,52.61
2023-05-26T08:35:33.484Z,51.85
2023-05-26T08:38:03.976Z,51.24
2023-05-26T08:40:34.889Z,50.72
2023-05-26T08:43:11.064Z,50.55
2023-05-26T08:45:43.051Z,50.46
2023-05-26T08:48:15.238Z,50.32
2023-05-26T08:50:50.295Z,50.17
2023-05-26T08:53:21.410Z,49.99
2023-05-26T08:55:52.912Z,50.13
2023-05-26T08:58:25.219Z,50.16
2023-05-26T09:00:57.238Z,50.20
2023-05-26T09:03:27.959Z,49.76
2023-05-26T09:05:58.684Z,50.25
2023-05-26T09:08:30.213Z,50.75
2023-05-26T09:11:19.868Z,50.76
2023-05-26T09:13:54.764Z,50.32
2023-05-26T09:16:26.596Z,50.30
2023-05-26T09:19:03.217Z,50.19
2023-05-26T09:21:34.594Z,50.53
2023-05-26T09:24:05.289Z,50.49
2023-05-26T09:26:39.423Z,50.25
2023-05-26T09:29:10.032Z,49.91
2023-05-26T09:31:44.405Z,50.13
2023-05-26T09:34:15.877Z,50.38
2023-05-26T09:36:46.694Z,49.92
2023-05-26T09:39:17.747Z,49.61
2023-05-26T09:41:49.136Z,49.67
2023-05-26T09:44:21.744Z,50.11
2023-05-26T09:46:55.888Z,49.99
2023-05-26T09:49:26.435Z,49.27
2023-05-26T09:52:12.659Z,49.21
2023-05-26T09:54:44.230Z,48.98
2023-05-26T09:57:16.954Z,48.75
2023-05-26T09:59:52.262Z,48.86
2023-05-26T10:02:24.585Z,47.85
2023-05-26T10:04:56.006Z,47.31
2023-05-26T10:07:28.469Z,46.92
2023-05-26T10:10:01.563Z,47.11
2023-05-26T10:12:34.657Z,46.70
2023-05-26T10:15:06.643Z,46.80
2023-05-26T10:17:37.736Z,46.23
2023-05-26T10:20:10.473Z,44.49
2023-05-26T10:22:48.944Z,44.51
2023-05-26T10:25:27.006Z,45.15
2023-05-26T10:28:06.528Z,46.36
2023-05-26T10:30:39.056Z,45.99
2023-05-26T10:33:14.655Z,45.15
2023-05-26T10:35:56.972Z,44.86
2023-05-26T10:38:32.651Z,44.51
2023-05-26T10:41:03.249Z,43.91
2023-05-26T10:43:33.810Z,42.46
2023-05-26T10:46:06.003Z,41.46
2023-05-26T10:48:39.546Z,40.74
2023-05-26T10:51:25.958Z,40.98
2023-05-26T10:53:58.379Z,41.00
2023-05-26T10:56:42.833Z,40.31
2023-05-26T10:59:23.530Z,40.52
2023-05-26T11:01:55.632Z,39.59
2023-05-26T11:04:41.174Z,39.88
2023-05-26T11:07:19.597Z,40.11
2023-05-26T11:10:03.301Z,40.18
2023-05-26T11:12:38.120Z,40.16
2023-05-26T11:15:28.251Z,40.72
2023-05-26T11:18:02.553Z,41.17
2023-05-26T11:20:33.417Z,41.34
2023-05-26T11:23:04.942Z,40.69
2023-05-26T11:25:48.136Z,40.29
2023-05-26T11:28:22.052Z,40.77
2023-05-26T11:30:52.779Z,40.89
2023-05-26T11:33:23.291Z,40.71
2023-05-26T11:35:53.896Z,41.56
2023-05-26T11:38:24.910Z,41.31
2023-05-26T11:40:55.398Z,41.64
2023-05-26T11:43:27.746Z,42.25
2023-05-26T11:46:03.481Z,41.29
2023-05-26T11:48:40.464Z,41.69
2023-05-26T11:51:12.964Z,40.79
2023-05-26T11:53:46.101Z,39.37
2023-05-26T11:56:17.794Z,39.49
2023-05-26T11:58:47.682Z,38.50
2023-05-26T12:01:18.243Z,37.96
2023-05-26T12:03:52.857Z,37.66
2023-05-26T12:06:25.199Z,37.46
2023-05-26T12:08:57.455Z,38.52
2023-05-26T12:11:36.018Z,38.16
2023-05-26T12:14:12.217Z,37.19
2023-05-26T12:16:45.107Z,37.49
2023-05-26T12:19:19.374Z,36.99
2023-05-26T12:21:52.195Z,36.74
2023-05-26T12:24:34.962Z,36.77
2023-05-26T12:27:13.388Z,36.87
2023-05-26T12:29:45.568Z,37.90
2023-05-26T12:32:16.213Z,38.65
2023-05-26T12:34:46.846Z,38.36
2023-05-26T12:37:18.556Z,37.72
2023-05-26T12:39:49.029Z,37.71
2023-05-26T12:42:19.565Z,37.56
2023-05-26T12:44:50.049Z,37.78
2023-05-26T12:47:20.571Z,37.88
2023-05-26T12:49:51.114Z,38.10
2023-05-26T12:52:21.655Z,38.41
2023-05-26T12:54:54.154Z,38.59
2023-05-26T12:57:26.458Z,39.44
2023-05-26T12:59:56.920Z,39.22
2023-05-26T13:02:27.548Z,38.89
2023-05-26T13:04:58.240Z,38.55
2023-05-26T13:07:28.831Z,38.15
2023-05-26T13:09:59.461Z,38.22
2023-05-26T13:12:30.124Z,37.10
2023-05-26T13:15:00.665Z,36.55
2023-05-26T13:17:31.330Z,37.43
2023-05-26T13:20:02.161Z,36.97
2023-05-26T13:22:32.752Z,36.57
2023-05-26T13:25:03.542Z,37.02
2023-05-26T13:27:34.038Z,37.35
2023-05-26T13:30:04.988Z,36.31
2023-05-26T13:32:37.675Z,35.66
2023-05-26T13:35:10.402Z,34.39
2023-05-26T13:37:41.485Z,33.59
2023-05-26T13:40:14.029Z,33.20
2023-05-26T13:42:44.525Z,33.29
2023-05-26T13:45:15.944Z,34.09
2023-05-26T13:47:47.172Z,34.14
2023-05-26T13:50:21.610Z,33.97
2023-05-26T13:52:53.269Z,33.47
2023-05-26T13:55:25.372Z,33.98
2023-05-26T13:57:55.948Z,34.24
2023-05-26T14:00:27.182Z,34.88
2023-05-26T14:02:57.822Z,35.06
2023-05-26T14:05:28.432Z,34.96
2023-05-26T14:07:59.880Z,34.98
2023-05-26T14:10:31.929Z,34.69
2023-05-26T14:13:02.466Z,34.68
2023-05-26T14:15:33.277Z,34.90
2023-05-26T14:18:08.594Z,33.83
2023-05-26T14:21:37.526Z,33.77
2023-05-26T14:23:30.556Z,34.09
2023-05-26T14:26:03.785Z,33.37
2023-05-26T14:28:34.335Z,32.66
2023-05-26T14:31:05.027Z,32.63
2023-05-26T14:33:35.890Z,32.41
2023-05-26T14:36:06.640Z,32.24
2023-05-26T14:38:37.129Z,32.01
2023-05-26T14:41:07.826Z,30.98
2023-05-26T14:43:41.954Z,30.50
2023-05-26T14:46:12.972Z,30.69
2023-05-26T14:48:43.662Z,29.70
2023-05-26T14:51:14.265Z,29.86
2023-05-26T14:53:44.939Z,29.92
2023-05-26T14:56:15.525Z,30.35
2023-05-26T14:58:46.649Z,30.47
2023-05-26T15:01:17.421Z,30.20
2023-05-26T15:04:07.931Z,30.31
2023-05-26T15:06:39.663Z,30.05
2023-05-26T15:09:10.652Z,29.75
2023-05-26T15:11:41.247Z,29.31
2023-05-26T15:14:11.740Z,28.91
2023-05-26T15:21:03.831Z,28.47
2023-05-26T15:28:01.260Z,28.13
2023-05-26T15:34:52.158Z,28.13
2023-05-26T15:37:22.900Z,28.28
2023-05-26T15:39:53.658Z,27.40
2023-05-26T15:42:24.284Z,27.02
2023-05-26T15:44:54.811Z,27.43
2023-05-26T15:47:25.433Z,27.69
2023-05-26T15:49:55.968Z,27.41
2023-05-26T15:52:26.580Z,27.25
2023-05-26T15:54:57.210Z,27.44
2023-05-26T15:57:27.824Z,27.70
2023-05-26T15:59:58.744Z,27.93
2023-05-26T16:02:29.656Z,27.91
2023-05-26T16:05:00.202Z,28.23
2023-05-26T16:07:31.817Z,28.37
2023-05-26T16:10:02.290Z,28.68
2023-05-26T16:12:32.856Z,28.78
2023-05-26T16:15:03.399Z,29.09
2023-05-26T16:17:34.018Z,29.51
2023-05-26T16:20:04.901Z,29.83
2023-05-26T16:22:35.506Z,30.27
2023-05-26T16:25:06.480Z,29.93
2023-05-26T16:27:36.985Z,29.15
2023-05-26T16:30:09.578Z,28.88
2023-05-26T16:32:42.020Z,29.03
2023-05-26T16:35:13.217Z,29.06
2023-05-26T16:37:43.799Z,29.62
2023-05-26T16:40:14.954Z,29.36
2023-05-26T16:42:45.471Z,28.98
2023-05-26T16:45:16.108Z,28.47
2023-05-26T16:47:46.727Z,28.48
2023-05-26T16:50:17.271Z,28.60
2023-05-26T16:52:47.757Z,29.06
2023-05-26T16:55:18.652Z,29.13
2023-05-26T16:57:50.631Z,29.28
2023-05-26T17:00:21.905Z,29.36
2023-05-26T17:02:52.541Z,29.41
2023-05-26T17:05:23.400Z,29.41
2023-05-26T17:07:54.381Z,29.78
2023-05-26T17:10:24.942Z,29.95
2023-05-26T17:12:56.143Z,30.29
2023-05-26T17:15:27.506Z,30.05
2023-05-26T17:17:58.376Z,30.43
2023-05-26T17:20:29.130Z,30.35
2023-05-26T17:22:59.832Z,30.06
2023-05-26T17:25:30.371Z,30.27
2023-05-26T17:28:02.099Z,30.43
2023-05-26T17:30:33.057Z,30.40
2023-05-26T17:33:04.144Z,30.13
2023-05-26T17:35:34.945Z,30.22
2023-05-26T17:38:05.517Z,30.10
2023-05-26T17:40:36.088Z,30.01
2023-05-26T17:43:06.797Z,30.12
2023-05-26T17:45:37.278Z,30.19
2023-05-26T17:48:07.862Z,30.19
2023-05-26T17:50:38.377Z,30.45
2023-05-26T17:53:08.923Z,30.34
2023-05-26T17:55:39.418Z,30.58
2023-05-26T17:58:09.951Z,30.71
2023-05-26T18:00:40.779Z,30.72
2023-05-26T18:03:11.884Z,30.76
2023-05-26T18:05:42.527Z,31.06
2023-05-26T18:08:13.098Z,30.99
2023-05-26T18:10:43.626Z,31.10
2023-05-26T18:13:14.522Z,31.08
2023-05-26T18:15:45.159Z,31.18
2023-05-26T18:18:15.720Z,31.22
2023-05-26T18:20:46.684Z,31.02
2023-05-26T18:23:17.473Z,31.12
2023-05-26T18:25:48.087Z,31.14
2023-05-26T18:28:18.580Z,31.00
2023-05-26T18:30:49.124Z,30.93
2023-05-26T18:33:19.622Z,30.94
2023-05-26T18:35:50.344Z,30.98
2023-05-26T18:38:21.170Z,31.03
2023-05-26T18:40:51.717Z,31.13
2023-05-26T18:43:22.208Z,31.07
2023-05-26T18:45:52.718Z,31.14
2023-05-26T18:48:23.768Z,31.28
2023-05-26T18:50:54.325Z,31.41
2023-05-26T18:53:24.840Z,31.63
2023-05-26T18:55:55.454Z,31.97
2023-05-26T18:58:26.038Z,32.19
2023-05-26T19:00:56.626Z,32.52
2023-05-26T19:03:27.323Z,32.74
2023-05-26T19:05:57.958Z,32.92
2023-05-26T19:08:28.475Z,33.02
2023-05-26T19:10:59.191Z,33.27
2023-05-26T19:13:30.048Z,33.45
2023-05-26T19:16:01.403Z,33.69
2023-05-26T19:18:31.984Z,33.90
2023-05-26T19:21:02.520Z,34.12
2023-05-26T19:23:33.102Z,34.35
2023-05-26T19:26:03.733Z,34.48
2023-05-26T19:28:39.347Z,34.66
2023-05-26T19:31:12.531Z,34.91
2023-05-26T19:33:43.233Z,35.15
2023-05-26T19:36:13.760Z,35.17
2023-05-26T19:38:44.324Z,35.22
2023-05-26T19:41:14.801Z,35.28
2023-05-26T19:43:45.297Z,35.60
2023-05-26T19:46:15.922Z,35.66
2023-05-26T19:48:48.107Z,35.64
2023-05-26T19:51:18.609Z,35.84
2023-05-26T19:53:49.132Z,35.99
2023-05-26T19:56:19.724Z,36.06
2023-05-26T19:58:50.197Z,36.23
2023-05-26T20:01:22.873Z,36.48
2023-05-26T20:03:53.665Z,36.58
2023-05-26T20:06:24.739Z,36.76
2023-05-26T20:08:55.254Z,36.95
2023-05-26T20:11:27.844Z,37.11
2023-05-26T20:13:58.448Z,37.24
2023-05-26T20:16:29.079Z,37.40
2023-05-26T20:19:00.027Z,37.57
2023-05-26T20:21:30.635Z,37.73
2023-05-26T20:24:01.827Z,37.81
2023-05-26T20:26:32.401Z,37.98
2023-05-26T20:29:03.027Z,38.02
2023-05-26T20:31:33.739Z,38.18
2023-05-26T20:34:04.298Z,38.34
2023-05-26T20:36:34.893Z,38.39
2023-05-26T20:39:06.474Z,38.44
2023-05-26T20:41:37.086Z,38.58
2023-05-26T20:44:07.685Z,38.71
2023-05-26T20:46:38.448Z,38.80
2023-05-26T20:49:09.007Z,38.75
2023-05-26T20:51:39.585Z,38.80
2023-05-26T20:54:10.081Z,38.92
2023-05-26T20:56:40.983Z,38.86
2023-05-26T20:59:11.503Z,38.89
2023-05-26T21:01:42.026Z,38.87
2023-05-26T21:04:12.702Z,38.91
2023-05-26T21:06:43.197Z,38.90
2023-05-26T21:09:14.170Z,39.01
2023-05-26T21:11:44.766Z,39.08
2023-05-26T21:14:15.313Z,39.22
2023-05-26T21:16:46.234Z,39.19
2023-05-26T21:19:16.812Z,39.35
2023-05-26T21:21:47.328Z,39.28
2023-05-26T21:24:17.877Z,39.48
2023-05-26T21:26:48.421Z,39.60
2023-05-26T21:29:18.909Z,39.68
2023-05-26T21:31:49.557Z,39.77
2023-05-26T21:34:20.161Z,39.62
2023-05-26T21:36:50.757Z,39.81
2023-05-26T21:39:21.322Z,39.78
2023-05-26T21:41:51.880Z,39.83
2023-05-26T21:44:22.328Z,39.91
2023-05-26T21:46:53.006Z,39.97
2023-05-26T21:49:24.807Z,39.90
2023-05-26T21:51:55.338Z,40.10
2023-05-26T21:54:25.975Z,40.19
2023-05-26T21:56:56.679Z,40.21
2023-05-26T21:59:27.254Z,40.39
2023-05-26T22:01:57.869Z,40.50
2023-05-26T22:04:28.499Z,40.46
2023-05-26T22:06:59.054Z,40.54
2023-05-26T22:09:29.557Z,40.75
2023-05-26T22:12:00.266Z,40.74
2023-05-26T22:14:30.846Z,40.89
2023-05-26T22:17:01.387Z,41.06
2023-05-26T22:19:31.919Z,41.14
2023-05-26T22:22:02.407Z,41.29
2023-05-26T22:24:32.949Z,41.38
2023-05-26T22:27:03.950Z,41.50
2023-05-26T22:29:34.482Z,41.62
2023-05-26T22:32:05.698Z,41.76
2023-05-26T22:34:36.303Z,41.87
2023-05-26T22:37:07.234Z,41.84
2023-05-26T22:39:37.739Z,42.08
2023-05-26T22:42:09.171Z,42.15
2023-05-26T22:44:39.893Z,42.54
2023-05-26T22:47:10.769Z,42.57
2023-05-26T22:49:41.480Z,42.43
2023-05-26T22:52:11.974Z,42.46
2023-05-26T22:54:42.578Z,42.59
2023-05-26T22:57:13.136Z,42.65
2023-05-26T22:59:43.662Z,42.70
2023-05-26T23:02:14.379Z,42.84
2023-05-26T23:04:44.888Z,42.84
2023-05-26T23:07:15.371Z,42.97
2023-05-26T23:09:46.006Z,43.28
2023-05-26T23:12:16.606Z,43.33
2023-05-26T23:14:47.147Z,43.40
2023-05-26T23:17:17.701Z,43.45
2023-05-26T23:19:48.212Z,43.49
2023-05-26T23:22:18.743Z,43.65
2023-05-26T23:24:49.315Z,43.76
2023-05-26T23:27:19.826Z,43.72
2023-05-26T23:29:50.493Z,43.86
2023-05-26T23:32:21.069Z,43.95
2023-05-26T23:34:51.794Z,43.97
2023-05-26T23:37:22.529Z,44.08
2023-05-26T23:39:53.081Z,44.11
2023-05-26T23:42:23.605Z,44.16
2023-05-26T23:44:54.522Z,44.23
2023-05-26T23:47:25.109Z,44.25
2023-05-26T23:49:55.866Z,44.36
2023-05-26T23:52:26.393Z,44.55
2023-05-26T23:54:56.932Z,44.43
2023-05-26T23:57:27.541Z,44.47
2023-05-26T23:59:58.030Z,44.50
